Time;durP1;ratioP1;P1;durP2;ratioP2;P2;SDS_P1;SDS_P2;PMS_P1;PMS_P2;Temp;Humidity;BMP_temperature;BMP_pressure;BME280_temperature;BME280_humidity;BME280_pressure;Samples;Min_cycle;Max_cycle;Signal;HPM_P1;HPM_P2
2021/06/04 00:01:48;;;;;;;0.70;0.67;;;19.40;99.90;;;19.87;100.00;-11754.56;5042943;28;20507;-81
2021/06/04 00:04:16;;;;;;;0.70;0.60;;;19.40;99.90;;;19.88;100.00;-12269.56;5053537;28;20424;-81
2021/06/04 00:06:45;;;;;;;0.80;0.70;;;19.40;99.90;;;19.92;100.00;-12690.59;5052913;28;20769;-81
2021/06/04 00:09:15;;;;;;;0.73;0.63;;;19.40;99.90;;;20.10;100.00;-12894.44;5060805;28;20457;-81
2021/06/04 00:11:46;;;;;;;0.70;0.70;;;19.50;99.90;;;20.19;100.00;-12916.06;5074639;28;20503;-81
2021/06/04 00:14:19;;;;;;;0.80;0.70;;;19.50;99.90;;;20.22;100.00;-12921.53;5072587;28;20508;-80
2021/06/04 00:16:52;;;;;;;0.80;0.70;;;19.60;99.90;;;20.20;100.00;-12954.44;5074308;28;20465;-81
2021/06/04 00:19:23;;;;;;;0.70;0.60;;;19.60;99.90;;;20.19;100.00;-13061.38;5054545;28;20455;-80
2021/06/04 00:21:56;;;;;;;0.70;0.60;;;19.60;99.90;;;20.10;100.00;-13353.25;5073643;28;20462;-80
2021/06/04 00:24:25;;;;;;;0.70;0.60;;;19.60;99.90;;;20.10;100.00;-13681.94;5072373;28;20459;-81
2021/06/04 00:26:54;;;;;;;0.70;0.60;;;19.60;99.90;;;20.16;100.00;-14001.50;5072803;28;20475;-80
2021/06/04 00:29:22;;;;;;;0.80;0.70;;;19.60;99.90;;;20.13;100.00;-14187.06;5072222;28;20828;-80
2021/06/04 00:31:54;;;;;;;0.70;0.60;;;19.60;99.90;;;20.12;100.00;-14372.91;5056197;28;20428;-80
2021/06/04 00:34:24;;;;;;;1.00;0.90;;;19.60;99.90;;;20.14;100.00;-14533.66;5072119;28;20451;-82
2021/06/04 00:36:52;;;;;;;0.73;0.70;;;19.60;99.90;;;20.22;100.00;-14593.69;5072166;28;20527;-81
2021/06/04 00:39:24;;;;;;;0.70;0.70;;;19.60;99.90;;;20.20;100.00;-14669.81;5068733;28;20452;-82
2021/06/04 00:41:57;;;;;;;0.80;0.63;;;19.60;99.90;;;20.10;100.00;-14805.69;5052602;28;20974;-81
2021/06/04 00:44:26;;;;;;;0.80;0.73;;;19.60;99.90;;;20.01;100.00;-15069.16;5034638;28;20431;-81
2021/06/04 00:46:56;;;;;;;0.80;0.73;;;19.50;99.90;;;19.99;100.00;-15481.31;5052483;28;20528;-81
2021/06/04 00:49:25;;;;;;;0.80;0.80;;;19.50;99.90;;;20.08;100.00;-15717.16;5067098;28;20432;-81
2021/06/04 00:51:58;;;;;;;0.70;0.60;;;19.50;99.90;;;20.26;100.00;-15812.28;5072973;28;20477;-82
2021/06/04 00:54:28;;;;;;;0.80;0.70;;;19.60;99.90;;;20.31;100.00;-15647.41;5072907;28;20493;-81
2021/06/04 00:56:59;;;;;;;0.70;0.70;;;19.60;99.90;;;20.35;100.00;-15457.03;5072933;28;20919;-83
2021/06/04 00:59:37;;;;;;;0.80;0.70;;;19.60;99.90;;;20.46;100.00;-15081.81;5056660;28;20526;-80
2021/06/04 01:02:23;;;;;;;0.70;0.60;;;19.70;99.90;;;20.39;100.00;-14688.09;5071993;28;20929;-81
2021/06/04 01:04:54;;;;;;;0.80;0.70;;;19.70;99.90;;;20.25;100.00;-14273.06;5072281;28;20451;-81
2021/06/04 01:07:35;;;;;;;0.77;0.63;;;19.70;99.90;;;20.15;100.00;-14144.06;5071810;28;20849;-82
2021/06/04 01:10:28;;;;;;;0.70;0.60;;;19.70;99.90;;;19.95;100.00;-14270.88;5054604;28;20443;-82
2021/06/04 01:13:07;;;;;;;0.70;0.60;;;19.60;99.90;;;19.91;100.00;-14586.06;5072255;28;20551;-82
2021/06/04 01:16:06;;;;;;;0.80;0.80;;;19.50;99.90;;;19.83;100.00;-15027.75;5052171;28;20931;-83
2021/06/04 01:18:57;;;;;;;0.80;0.70;;;19.40;99.90;;;19.68;100.00;-15524.25;5051853;28;20508;-82
2021/06/04 01:21:38;;;;;;;0.80;0.70;;;19.30;99.90;;;19.52;100.00;-16170.19;5053206;28;20452;-82
2021/06/04 01:24:23;;;;;;;1.20;1.10;;;19.20;99.90;;;19.47;100.00;-16932.44;5053744;28;20442;-83
2021/06/04 01:26:58;;;;;;;0.80;0.70;;;19.10;99.90;;;19.42;100.00;-17668.88;5052237;28;20492;-82
2021/06/04 01:29:35;;;;;;;0.70;0.60;;;19.00;99.90;;;19.39;100.00;-18331.75;5051428;28;20435;-81
2021/06/04 01:32:13;;;;;;;1.07;1.00;;;19.00;99.90;;;19.31;100.00;-19110.13;5072819;28;20430;-81
2021/06/04 01:34:47;;;;;;;0.70;0.60;;;18.90;99.90;;;19.25;100.00;-19789.66;5072014;28;20460;-81
2021/06/04 01:37:23;;;;;;;0.80;0.70;;;18.90;99.90;;;19.33;100.00;-20436.66;5053850;28;20471;-82
2021/06/04 01:40:13;;;;;;;0.80;0.70;;;18.80;99.90;;;19.30;100.00;-20987.13;5057656;28;20539;-83
2021/06/04 01:42:49;;;;;;;0.80;0.80;;;18.80;99.90;;;19.33;100.00;-21205.56;5067398;28;20455;-83
2021/06/04 01:45:28;;;;;;;0.80;0.70;;;18.80;99.90;;;19.30;100.00;-21205.03;5056152;28;20447;-84
2021/06/04 01:48:04;;;;;;;0.80;0.73;;;18.80;99.90;;;19.28;100.00;-21204.47;5053533;28;20467;-82
2021/06/04 01:50:46;;;;;;;0.70;0.60;;;18.80;99.90;;;19.14;100.00;-21200.66;5053219;28;20855;-81
2021/06/04 01:53:20;;;;;;;0.80;0.70;;;18.70;99.90;;;19.12;100.00;-21200.09;5037886;28;20463;-83
2021/06/04 01:55:57;;;;;;;0.80;0.70;;;18.70;99.90;;;19.12;100.00;-21200.09;5056508;28;20434;-82
2021/06/04 01:58:35;;;;;;;0.73;0.67;;;18.70;99.90;;;19.04;100.00;-21197.91;5042899;28;20477;-82
2021/06/04 02:01:09;;;;;;;0.80;0.70;;;18.60;99.90;;;18.98;100.00;-21196.25;5040666;28;20440;-82
2021/06/04 02:03:41;;;;;;;0.70;0.67;;;18.60;99.90;;;18.98;100.00;-21196.41;5055692;28;20463;-82
2021/06/04 02:06:18;;;;;;;0.80;0.70;;;18.50;99.90;;;18.94;100.00;-21195.16;5055255;28;20451;-82
2021/06/04 02:08:51;;;;;;;0.70;0.60;;;18.50;99.90;;;18.84;100.00;-21192.56;5055130;28;20558;-82
2021/06/04 02:11:32;;;;;;;0.80;0.70;;;18.40;99.90;;;18.91;100.00;-21194.50;5057834;28;20436;-82
2021/06/04 02:14:09;;;;;;;0.80;0.70;;;18.40;99.90;;;18.94;100.00;-21195.16;5071505;28;20465;-83
2021/06/04 02:17:10;;;;;;;0.80;0.80;;;18.40;99.90;;;18.87;100.00;-21193.25;5069561;28;20974;-83
2021/06/04 02:19:53;;;;;;;0.73;0.67;;;18.40;99.90;;;18.76;100.00;-21190.38;5076514;28;20951;-82
2021/06/04 02:22:51;;;;;;;0.80;0.70;;;18.40;99.90;;;18.72;100.00;-21189.44;5074792;28;20799;-82
2021/06/04 02:25:31;;;;;;;0.77;0.70;;;18.30;99.90;;;18.64;100.00;-21187.22;5068024;28;20444;-82
2021/06/04 02:28:05;;;;;;;0.70;0.60;;;18.20;99.90;;;18.56;100.00;-21185.03;5038338;28;20447;-83
2021/06/04 02:30:42;;;;;;;0.80;0.70;;;18.10;99.90;;;18.48;100.00;-21182.97;5054840;28;20435;-83
2021/06/04 02:33:18;;;;;;;0.80;0.70;;;18.10;99.90;;;18.59;100.00;-21185.84;5055342;28;20463;-82
2021/06/04 02:35:52;;;;;;;0.80;0.70;;;18.10;99.90;;;18.51;100.00;-21183.81;5055289;28;20497;-82
2021/06/04 02:38:31;;;;;;;0.70;0.70;;;18.10;99.90;;;18.49;100.00;-21183.13;5055340;28;20454;-81
2021/06/04 02:41:09;;;;;;;1.77;1.20;;;18.00;99.90;;;18.51;100.00;-21183.81;5039216;28;20973;-82
2021/06/04 02:43:42;;;;;;;0.70;0.60;;;18.00;99.90;;;18.47;100.00;-21182.72;5055464;28;20439;-82
2021/06/04 02:46:19;;;;;;;0.70;0.70;;;18.00;99.90;;;18.40;100.00;-21180.78;5038238;28;20440;-82
2021/06/04 02:48:49;;;;;;;0.73;0.70;;;18.00;99.90;;;18.40;100.00;-21180.66;5074441;28;20481;-82
2021/06/04 02:51:29;;;;;;;0.70;0.60;;;18.00;99.90;;;18.30;100.00;-21178.19;5074162;28;20435;-82
2021/06/04 02:54:03;;;;;;;0.70;0.70;;;17.90;99.90;;;18.24;100.00;-21176.41;5038091;28;20838;-81
2021/06/04 02:56:38;;;;;;;0.70;0.67;;;17.80;99.90;;;18.19;100.00;-21175.19;5054640;28;20856;-82
2021/06/04 02:59:12;;;;;;;0.80;0.70;;;17.80;99.90;;;18.10;100.00;-21172.72;5067227;28;20434;-78
2021/06/04 03:01:46;;;;;;;0.70;0.60;;;17.70;99.90;;;18.15;100.00;-21173.94;5074128;28;20424;-82
2021/06/04 03:04:15;;;;;;;0.70;0.60;;;17.70;99.90;;;18.19;100.00;-21175.19;5074048;28;20473;-83
2021/06/04 03:06:51;;;;;;;0.70;0.60;;;17.70;99.90;;;18.08;100.00;-21172.16;5046058;28;20435;-82
2021/06/04 03:09:23;;;;;;;0.70;0.60;;;17.70;99.90;;;18.03;100.00;-21170.78;5075382;28;20457;-83
2021/06/04 03:11:56;;;;;;;0.70;0.70;;;17.70;99.90;;;18.06;100.00;-21171.63;5057893;28;20910;-83
2021/06/04 03:14:24;;;;;;;0.70;0.60;;;17.60;99.90;;;18.06;100.00;-21171.63;5074160;28;20953;-82
2021/06/04 03:16:57;;;;;;;0.70;0.70;;;17.60;99.90;;;17.99;100.00;-21169.69;5076248;28;20458;-82
2021/06/04 03:19:26;;;;;;;0.70;0.70;;;17.50;99.90;;;17.97;100.00;-21169.16;5056077;28;20495;-82
2021/06/04 03:21:59;;;;;;;0.70;0.60;;;17.50;99.90;;;17.97;100.00;-21169.28;5061478;28;20454;-83
2021/06/04 03:24:37;;;;;;;0.70;0.60;;;17.50;99.90;;;17.97;100.00;-21169.28;5087531;28;20980;-81
2021/06/04 03:27:08;;;;;;;0.87;0.80;;;17.50;99.90;;;17.92;100.00;-21167.78;5070908;28;20432;-81
2021/06/04 03:29:37;;;;;;;0.70;0.60;;;17.50;99.90;;;17.81;100.00;-21164.91;5054642;28;20426;-82
2021/06/04 03:32:13;;;;;;;0.70;0.60;;;17.40;99.90;;;17.77;100.00;-21163.94;5070580;28;20460;-83
2021/06/04 03:34:45;;;;;;;0.80;0.70;;;17.30;99.90;;;17.74;100.00;-21163.13;5053444;28;20945;-84
2021/06/04 03:37:15;;;;;;;0.80;0.70;;;17.30;99.90;;;17.72;100.00;-21162.56;5069094;28;20493;-81
2021/06/04 03:39:45;;;;;;;0.70;0.70;;;17.30;99.90;;;17.78;100.00;-21164.22;5055673;28;20486;-81
2021/06/04 03:42:25;;;;;;;0.70;0.60;;;17.30;99.90;;;17.81;100.00;-21165.03;5053569;28;20438;-83
2021/06/04 03:44:55;;;;;;;0.70;0.63;;;17.40;99.90;;;17.76;100.00;-21163.66;5053403;28;20415;-81
2021/06/04 03:47:25;;;;;;;0.77;0.70;;;17.30;99.90;;;17.71;100.00;-21162.16;5053601;28;20523;-82
2021/06/04 03:49:54;;;;;;;0.73;0.70;;;17.30;99.90;;;17.69;100.00;-21161.63;5056176;28;20435;-81
2021/06/04 03:52:24;;;;;;;0.70;0.60;;;17.20;99.90;;;17.65;100.00;-21160.66;5053292;28;21008;-83
2021/06/04 03:54:56;;;;;;;0.70;0.63;;;17.20;99.90;;;17.68;100.00;-21161.34;5053064;28;20480;-82
2021/06/04 03:57:30;;;;;;;0.70;0.70;;;17.20;99.90;;;17.64;100.00;-21160.38;5053124;28;20798;-82
2021/06/04 04:00:00;;;;;;;1.00;0.90;;;17.20;99.90;;;17.59;100.00;-21159.13;5036772;28;20452;-81
2021/06/04 04:02:29;;;;;;;0.70;0.70;;;17.10;99.90;;;17.65;100.00;-21160.66;5037152;28;20952;-82
2021/06/04 04:04:59;;;;;;;0.73;0.63;;;17.10;99.90;;;17.69;100.00;-21161.75;5064945;28;20478;-82
2021/06/04 04:07:30;;;;;;;0.70;0.60;;;17.20;99.90;;;17.75;100.00;-21163.25;5069740;28;20425;-82
2021/06/04 04:09:58;;;;;;;0.70;0.70;;;17.20;99.90;;;17.81;100.00;-21165.03;5054364;28;20442;-82
2021/06/04 04:12:27;;;;;;;0.70;0.60;;;17.30;99.90;;;17.81;100.00;-21165.03;5071842;28;20492;-82
2021/06/04 04:14:55;;;;;;;0.70;0.60;;;17.30;99.90;;;17.85;100.00;-21166.13;5073752;28;20465;-83
2021/06/04 04:17:23;;;;;;;0.70;0.60;;;17.30;99.90;;;17.93;100.00;-21168.06;5056336;28;20500;-81
2021/06/04 04:19:52;;;;;;;0.70;0.60;;;17.40;99.90;;;18.01;100.00;-21170.25;5072824;28;20537;-82
2021/06/04 04:22:20;;;;;;;0.80;0.70;;;17.50;99.90;;;18.06;100.00;-21171.63;5074579;28;20410;-82
2021/06/04 04:24:47;;;;;;;0.70;0.67;;;17.50;99.90;;;18.04;100.00;-21171.06;5071909;28;20461;-83
2021/06/04 04:27:15;;;;;;;0.70;0.70;;;17.50;99.90;;;18.04;100.00;-21171.22;5072735;28;20491;-82
2021/06/04 04:29:43;;;;;;;0.80;0.70;;;17.50;99.90;;;18.10;100.00;-21172.72;5072252;28;20439;-82
2021/06/04 04:32:16;;;;;;;1.00;1.00;;;17.60;99.90;;;18.21;100.00;-21175.59;5072417;28;20768;-82
2021/06/04 04:34:45;;;;;;;0.70;0.60;;;17.60;99.90;;;18.26;100.00;-21176.97;5071987;28;20500;-82
2021/06/04 04:37:15;;;;;;;0.70;0.60;;;17.70;99.90;;;18.31;100.00;-21178.47;5072615;28;20446;-82
2021/06/04 04:39:47;;;;;;;0.77;0.70;;;17.80;99.90;;;18.28;100.00;-21177.66;5066995;28;20460;-82
2021/06/04 04:42:19;;;;;;;0.80;0.80;;;17.80;99.90;;;18.34;100.00;-21179.16;5035978;28;20432;-80
2021/06/04 04:44:52;;;;;;;0.70;0.60;;;17.80;99.90;;;18.40;100.00;-21180.66;5068583;28;20479;-82
2021/06/04 04:47:23;;;;;;;0.80;0.70;;;17.80;99.90;;;18.37;100.00;-21179.84;5052964;28;20490;-82
2021/06/04 04:49:52;;;;;;;0.77;0.70;;;17.80;99.90;;;18.34;100.00;-21179.28;5052470;28;20497;-82
2021/06/04 04:52:22;;;;;;;0.70;0.63;;;17.80;99.90;;;18.39;100.00;-21180.38;5060273;28;20463;-83
2021/06/04 04:54:55;;;;;;;0.80;0.70;;;17.80;99.90;;;18.45;100.00;-21182.16;5052325;28;20850;-84
2021/06/04 04:57:25;;;;;;;0.70;0.60;;;17.90;99.90;;;18.47;100.00;-21182.56;5054922;28;20456;-82
2021/06/04 04:59:53;;;;;;;0.70;0.70;;;17.90;99.90;;;18.46;100.00;-21182.44;5071086;28;20458;-83
2021/06/04 05:02:21;;;;;;;0.70;0.60;;;17.90;99.90;;;18.50;100.00;-21183.41;5072021;28;20864;-83
2021/06/04 05:04:49;;;;;;;0.70;0.70;;;17.90;99.90;;;18.49;100.00;-21183.13;5072095;28;20449;-82
2021/06/04 05:07:17;;;;;;;0.73;0.70;;;17.90;99.90;;;18.52;100.00;-21184.09;5072619;28;20508;-83
2021/06/04 05:09:46;;;;;;;0.80;0.70;;;18.00;99.90;;;18.74;100.00;-21189.97;5053491;28;20457;-82
2021/06/04 05:12:14;;;;;;;0.70;0.60;;;18.00;99.90;;;18.74;100.00;-21189.97;5070877;28;20523;-83
2021/06/04 05:14:43;;;;;;;1.20;1.10;;;18.10;99.90;;;18.89;100.00;-21193.81;5069487;28;20465;-82
2021/06/04 05:17:10;;;;;;;0.90;0.90;;;18.10;99.90;;;18.97;100.00;-21196.13;5072257;28;20463;-83
2021/06/04 05:19:42;;;;;;;0.70;0.60;;;18.20;99.90;;;19.13;100.00;-21200.38;5073377;28;20489;-83
2021/06/04 05:22:10;;;;;;;0.70;0.60;;;18.40;99.90;;;19.23;100.00;-21203.09;5055423;28;20485;-84
2021/06/04 05:24:38;;;;;;;0.70;0.60;;;18.50;99.90;;;19.29;100.00;-21204.75;5070918;28;20453;-84
2021/06/04 05:27:08;;;;;;;0.70;0.70;;;18.60;99.90;;;19.55;100.00;-21211.59;5050911;28;20531;-83
2021/06/04 05:29:37;;;;;;;0.70;0.70;;;18.70;99.90;;;19.62;100.00;-21213.50;5064615;28;20513;-84
2021/06/04 05:32:06;;;;;;;0.70;0.70;;;18.80;99.90;;;19.93;100.00;-21221.84;5059318;28;20807;-84
2021/06/04 05:34:34;;;;;;;0.80;0.70;;;18.90;99.90;;;20.12;100.00;-21226.91;5035348;28;20469;-84
2021/06/04 05:37:03;;;;;;;0.70;0.70;;;19.10;99.90;;;20.31;100.00;-21231.81;5052395;28;20538;-83
2021/06/04 05:39:32;;;;;;;0.70;0.70;;;19.20;99.90;;;20.39;100.00;-21234.00;5053007;28;20488;-83
2021/06/04 05:42:03;;;;;;;0.80;0.70;;;19.30;99.90;;;20.34;100.00;-21232.63;5043446;28;20882;-84
2021/06/04 05:44:34;;;;;;;0.70;0.60;;;19.50;99.90;;;20.41;100.00;-21234.53;5055082;28;20423;-84
2021/06/04 05:47:07;;;;;;;0.80;0.70;;;19.60;99.90;;;20.44;100.00;-21235.50;5055498;28;20446;-85
2021/06/04 05:49:36;;;;;;;0.70;0.60;;;19.70;99.90;;;20.66;100.00;-21241.38;5071454;28;20437;-83
2021/06/04 05:52:08;;;;;;;0.70;0.70;;;19.80;99.90;;;21.02;100.00;-21250.91;5051878;28;20928;-84
2021/06/04 05:54:40;;;;;;;0.70;0.60;;;20.00;99.90;;;21.18;100.00;-21255.28;5051912;28;20551;-87
2021/06/04 05:57:10;;;;;;;0.70;0.70;;;20.30;99.90;;;21.13;100.00;-21253.78;5051527;28;20436;-87
2021/06/04 05:59:38;;;;;;;0.80;0.80;;;20.50;99.90;;;21.20;100.00;-21255.69;5066980;28;20447;-84
2021/06/04 06:02:07;;;;;;;0.70;0.60;;;20.70;99.90;;;21.38;100.00;-21260.47;5084380;28;20875;-83
2021/06/04 06:04:34;;;;;;;0.70;0.70;;;20.90;99.90;;;21.86;100.00;-21273.28;5052133;28;20448;-84
2021/06/04 06:07:05;;;;;;;0.70;0.60;;;21.10;99.90;;;21.88;100.00;-21273.84;5063917;28;20443;-85
2021/06/04 06:09:36;;;;;;;0.70;0.60;;;21.20;99.90;;;22.01;100.00;-21277.38;5055557;28;20467;-83
2021/06/04 06:12:05;;;;;;;0.73;0.67;;;21.40;99.90;;;21.95;100.00;-21275.75;5070897;28;20474;-85
2021/06/04 06:14:33;;;;;;;0.80;0.70;;;21.40;99.90;;;22.27;100.00;-21284.19;5053003;28;20876;-82
2021/06/04 06:17:02;;;;;;;0.70;0.60;;;21.60;99.90;;;22.30;100.00;-21285.00;5035078;28;20419;-85
2021/06/04 06:19:30;;;;;;;0.73;0.60;;;21.70;99.90;;;22.13;100.00;-21280.66;5051961;28;20423;-80
2021/06/04 06:22:00;;;;;;;0.80;0.70;;;21.70;99.90;;;21.98;100.00;-21276.56;5054192;28;20432;-82
2021/06/04 06:24:28;;;;;;;0.70;0.60;;;21.60;99.90;;;22.01;100.00;-21277.38;5045781;28;20438;-84
2021/06/04 06:26:57;;;;;;;0.70;0.63;;;21.50;99.90;;;21.82;100.00;-21272.19;5052796;28;20418;-84
2021/06/04 06:29:29;;;;;;;0.70;0.60;;;21.50;99.90;;;22.13;100.00;-21280.66;5065821;28;20456;-86
2021/06/04 06:31:59;;;;;;;0.70;0.70;;;21.50;99.90;;;22.38;100.00;-21287.19;5054278;28;20410;-83
2021/06/04 06:34:28;;;;;;;0.70;0.60;;;21.70;99.90;;;22.38;100.00;-21287.19;5055375;28;20459;-85
2021/06/04 06:36:57;;;;;;;0.70;0.67;;;21.70;99.90;;;22.30;100.00;-21285.00;5051707;28;20425;-84
2021/06/04 06:39:28;;;;;;;0.70;0.70;;;21.80;99.90;;;21.83;100.00;-21272.47;5051664;28;20482;-84
2021/06/04 06:42:00;;;;;;;0.80;0.77;;;21.70;99.90;;;22.06;100.00;-21278.75;5054140;28;20387;-85
2021/06/04 06:44:28;;;;;;;0.80;0.80;;;21.60;99.90;;;21.88;100.00;-21273.84;5056785;28;20444;-85
2021/06/04 06:46:56;;;;;;;0.80;0.70;;;21.60;99.90;;;21.89;100.00;-21274.09;5067466;28;20444;-84
2021/06/04 06:49:25;;;;;;;1.97;1.87;;;21.60;99.90;;;22.14;100.00;-21280.94;5075483;28;20397;-85
2021/06/04 06:51:55;;;;;;;0.70;0.67;;;21.70;99.90;;;22.29;100.00;-21284.75;5058518;28;20440;-85
2021/06/04 06:54:31;;;;;;;0.70;0.60;;;21.80;99.90;;;22.54;100.00;-21291.53;5058797;28;20491;-84
2021/06/04 06:56:59;;;;;;;1.20;1.10;;;21.90;99.90;;;22.51;100.00;-21290.72;5058420;28;20443;-87
2021/06/04 06:59:30;;;;;;;0.80;0.70;;;22.10;99.90;;;22.86;100.00;-21299.97;5074972;28;20437;-87
2021/06/04 07:02:00;;;;;;;0.80;0.70;;;22.20;99.90;;;22.71;100.00;-21295.91;5075697;28;20378;-85
2021/06/04 07:04:29;;;;;;;0.80;0.80;;;22.30;99.90;;;22.58;100.00;-21292.50;5070955;28;20443;-86
2021/06/04 07:07:00;;;;;;;0.70;0.60;;;22.50;99.90;;;22.76;100.00;-21297.25;5056312;28;20420;-88
2021/06/04 07:09:28;;;;;;;0.70;0.60;;;22.50;99.90;;;22.71;100.00;-21296.03;5054850;28;20513;-87
2021/06/04 07:11:56;;;;;;;0.80;0.70;;;22.50;99.90;;;22.75;100.00;-21297.00;5074170;28;20429;-84
2021/06/04 07:14:30;;;;;;;0.80;0.80;;;22.50;99.90;;;23.04;100.00;-21304.88;5074551;28;20500;-84
2021/06/04 07:16:58;;;;;;;0.70;0.60;;;22.60;99.90;;;23.54;100.00;-21318.22;5074321;28;20434;-85
2021/06/04 07:19:27;;;;;;;0.80;0.70;;;22.90;99.90;;;23.33;100.00;-21312.50;5044466;28;20848;-86
2021/06/04 07:21:55;;;;;;;0.70;0.60;;;23.10;99.90;;;23.47;100.00;-21316.31;5054477;28;20513;-86
2021/06/04 07:24:25;;;;;;;0.80;0.60;;;23.40;99.90;;;23.90;100.00;-21327.72;5038037;28;20455;-82
2021/06/04 07:26:56;;;;;;;0.70;0.57;;;23.50;99.90;;;24.06;100.00;-21332.06;5065900;28;20462;-83
2021/06/04 07:29:28;;;;;;;0.70;0.60;;;23.60;99.90;;;24.29;100.00;-21338.19;5049901;28;20967;-84
2021/06/04 07:31:56;;;;;;;0.70;0.60;;;23.90;99.90;;;24.08;100.00;-21332.63;5074631;28;20473;-82
2021/06/04 07:34:28;;;;;;;0.70;0.60;;;24.00;99.90;;;24.61;100.00;-21346.47;5057491;28;20428;-83
2021/06/04 07:37:00;;;;;;;0.70;0.63;;;24.20;99.90;;;24.60;100.00;-21346.34;5057960;28;20776;-83
2021/06/04 07:39:34;;;;;;;0.77;0.60;;;24.40;99.90;;;24.30;100.00;-21338.31;5057177;28;20463;-83
2021/06/04 07:42:05;;;;;;;0.73;0.60;;;24.60;99.90;;;24.17;100.00;-21334.94;5075186;28;20435;-85
2021/06/04 07:44:32;;;;;;;0.70;0.57;;;24.50;99.90;;;24.67;100.00;-21348.09;5053828;28;20440;-82
2021/06/04 07:47:00;;;;;;;0.70;0.60;;;24.50;99.90;;;24.17;100.00;-21334.78;5053724;28;20436;-85
2021/06/04 07:49:29;;;;;;;0.70;0.50;;;24.60;99.90;;;24.45;100.00;-21342.25;5055175;28;20420;-86
2021/06/04 07:51:59;;;;;;;0.70;0.60;;;24.60;99.90;;;24.59;100.00;-21346.19;5055342;28;20408;-85
2021/06/04 07:54:30;;;;;;;0.90;0.70;;;24.70;99.90;;;25.06;100.00;-21358.69;5054280;28;20510;-83
2021/06/04 07:56:59;;;;;;;0.70;0.50;;;25.00;99.90;;;25.40;100.00;-21367.63;5053840;28;20446;-84
2021/06/04 07:59:27;;;;;;;0.70;0.60;;;25.10;99.90;;;25.39;100.00;-21367.22;5066192;28;20446;-87
2021/06/04 08:01:55;;;;;;;0.70;0.70;;;25.30;99.90;;;25.76;100.00;-21377.25;5044401;28;20452;-84
2021/06/04 08:04:23;;;;;;;0.73;0.60;;;25.70;99.90;;;25.65;100.00;-21374.13;5071988;28;20514;-85
2021/06/04 08:06:51;;;;;;;0.70;0.60;;;25.80;99.90;;;26.30;100.00;-21391.34;5075262;28;20415;-86
2021/06/04 08:09:19;;;;;;;0.70;0.57;;;26.00;99.90;;;26.07;100.00;-21385.38;5060465;28;20513;-85
2021/06/04 08:11:56;;;;;;;0.80;0.60;;;26.10;99.90;;;26.09;100.00;-21385.78;5070516;28;20505;-82
2021/06/04 08:14:31;;;;;;;0.70;0.50;;;26.10;99.90;;;26.63;100.00;-21400.13;5069633;28;20467;-86
2021/06/04 08:17:00;;;;;;;0.70;0.50;;;26.20;99.90;;;27.47;100.00;-21422.44;5037355;28;20464;-87
2021/06/04 08:19:33;;;;;;;0.70;0.60;;;26.60;99.90;;;27.34;100.00;-21419.06;5070575;28;20876;-85
2021/06/04 08:22:13;;;;;;;0.70;0.50;;;27.10;99.90;;;27.05;100.00;-21411.22;5054006;28;20805;-86
2021/06/04 08:24:41;;;;;;;0.70;0.60;;;27.40;99.90;;;27.86;100.00;-21432.84;5070791;28;20983;-84
2021/06/04 08:27:10;;;;;;;0.70;0.57;;;27.60;99.90;;;26.74;100.00;-21403.13;5073437;28;20446;-83
2021/06/04 08:29:38;;;;;;;0.70;0.60;;;27.60;99.90;;;27.11;100.00;-21413.00;5073370;28;20490;-80
2021/06/04 08:32:08;;;;;;;0.70;0.50;;;27.50;99.90;;;27.22;100.00;-21415.81;5073207;28;20447;-88
2021/06/04 08:34:35;;;;;;;0.70;0.60;;;27.30;99.90;;;27.62;100.00;-21426.38;5073161;28;20450;-85
2021/06/04 08:37:04;;;;;;;0.80;0.50;;;27.30;99.90;;;27.76;100.00;-21430.16;5075023;28;20458;-85
2021/06/04 08:39:35;;;;;;;0.70;0.60;;;27.50;99.90;;;27.21;100.00;-21415.56;5075279;28;20474;-84
2021/06/04 08:42:28;;;;;;;0.70;0.57;;;27.30;99.90;;;27.53;100.00;-21424.06;5076634;28;20408;-84
2021/06/04 08:45:16;;;;;;;0.80;0.67;;;27.60;99.90;;;27.90;100.00;-21433.94;5072966;28;20443;-85
2021/06/04 08:47:53;;;;;;;0.70;0.50;;;27.60;99.90;;;28.80;100.00;-21457.53;5074302;28;20407;-83
2021/06/04 08:50:32;;;;;;;0.70;0.50;;;28.40;99.90;;;29.51;100.00;-21476.28;5073102;28;20410;-88
2021/06/04 08:53:13;;;;;;;0.70;0.50;;;29.00;99.90;;;29.70;100.00;-21481.25;5072248;28;20474;-89
2021/06/04 08:55:49;;;;;;;0.80;0.60;;;29.50;99.90;;;29.31;100.00;-21471.16;5072345;28;20455;-82
2021/06/04 08:58:40;;;;;;;0.70;0.50;;;29.70;99.90;;;29.10;100.00;-21465.50;5067429;28;20477;-85
2021/06/04 09:01:16;;;;;;;0.70;0.50;;;30.10;99.90;;;30.76;100.00;-21509.25;5051695;28;20443;-83
2021/06/04 09:03:52;;;;;;;0.70;0.50;;;30.40;95.60;;;30.56;100.00;-21504.00;5069441;28;20433;-83
2021/06/04 09:06:36;;;;;;;0.70;0.50;;;31.00;92.00;;;31.42;100.00;-21526.59;5055535;28;20472;-84
2021/06/04 09:09:19;;;;;;;0.70;0.50;;;32.00;78.20;;;30.21;100.00;-21494.88;5072442;28;20983;-84
2021/06/04 09:11:52;;;;;;;0.70;0.50;;;31.90;72.70;;;31.95;100.00;-21540.66;5072658;28;20813;-86
2021/06/04 09:14:21;;;;;;;1.00;0.90;;;32.10;65.40;;;32.76;100.00;-21561.84;5072585;28;20450;-85
2021/06/04 09:17:07;;;;;;;0.80;0.50;;;33.00;58.20;;;32.75;100.00;-21561.44;5055226;28;20451;-84
2021/06/04 09:20:02;;;;;;;0.80;0.50;;;33.50;52.40;;;33.76;100.00;-21587.97;5072798;28;20407;-85
2021/06/04 09:22:38;;;;;;;0.80;0.50;;;34.00;48.10;;;33.40;100.00;-21578.59;5047698;28;20438;-84
2021/06/04 09:25:11;;;;;;;0.90;0.63;;;34.10;46.50;;;33.73;100.00;-21587.16;5074144;28;20448;-84
2021/06/04 09:27:44;;;;;;;0.80;0.50;;;34.80;40.30;;;33.23;100.00;-21574.03;5055711;28;20470;-84
2021/06/04 09:30:23;;;;;;;0.80;0.50;;;34.90;38.90;;;32.27;100.00;-21548.84;5053815;28;20416;-89
2021/06/04 09:33:12;;;;;;;0.90;0.50;;;34.70;29.60;;;32.98;100.00;-21567.63;5055340;28;20432;-83
2021/06/04 09:36:06;;;;;;;0.80;0.60;;;34.60;33.30;;;32.92;100.00;-21566.13;5046333;28;20822;-83
2021/06/04 09:38:41;;;;;;;1.33;1.13;;;34.20;33.20;;;32.63;100.00;-21558.50;5072384;28;20454;-84
2021/06/04 09:41:44;;;;;;;0.80;0.50;;;34.60;34.50;;;31.64;100.00;-21532.50;5056752;28;20829;-89
2021/06/04 09:44:26;;;;;;;0.80;0.50;;;34.30;31.00;;;30.72;100.00;-21508.31;5081209;28;20446;-85
2021/06/04 09:47:05;;;;;;;0.80;0.50;;;33.40;34.40;;;30.17;100.00;-21493.78;5073971;28;20505;-88
2021/06/04 09:49:48;;;;;;;0.80;0.50;;;32.00;43.80;;;29.85;100.00;-21485.44;5073707;28;20444;-85
2021/06/04 09:52:26;;;;;;;0.80;0.60;;;31.40;48.20;;;30.12;100.00;-21492.44;5072385;28;20439;-85
2021/06/04 09:55:25;;;;;;;0.80;0.50;;;31.10;48.30;;;30.74;100.00;-21508.72;5073705;28;20787;-86
2021/06/04 09:58:19;;;;;;;0.70;0.50;;;31.00;49.30;;;31.98;100.00;-21541.47;5062331;28;20845;-83
2021/06/04 10:01:05;;;;;;;0.80;0.50;;;31.70;52.80;;;33.03;100.00;-21568.97;5070858;28;20468;-85
2021/06/04 10:03:51;;;;;;;1.40;0.80;;;32.80;47.20;;;34.63;100.00;-21610.69;5073751;28;20439;-84
2021/06/04 10:06:42;;;;;;;0.80;0.50;;;34.20;39.00;;;35.11;100.00;-21623.38;5076069;28;20450;-87
2021/06/04 10:09:25;;;;;;;0.80;0.60;;;34.90;31.40;;;33.11;100.00;-21571.09;5075596;28;20458;-86
2021/06/04 10:11:59;;;;;;;0.80;0.50;;;35.10;30.60;;;33.58;100.00;-21583.28;5081027;28;20419;-85
2021/06/04 10:20:37;;;;;;;0.80;0.50;;;35.00;25.10;;;32.19;100.00;-21546.84;5057885;28;20447;-77
2021/06/04 10:23:15;;;;;;;0.80;0.50;;;34.80;23.10;;;34.03;100.00;-21595.19;5056237;28;20461;-84
2021/06/04 10:25:50;;;;;;;0.80;0.50;;;34.90;23.10;;;34.23;100.00;-21600.25;5067276;28;20439;-87
2021/06/04 10:28:41;;;;;;;0.80;0.50;;;35.20;26.20;;;34.71;100.00;-21612.94;5046556;28;20437;-88
2021/06/04 10:31:40;;;;;;;0.83;0.50;;;35.80;23.20;;;34.81;100.00;-21615.63;5076835;28;20479;-85
2021/06/04 10:34:40;;;;;;;0.80;0.50;;;36.20;24.50;;;34.76;100.00;-21614.16;5077856;28;20957;-86
2021/06/04 10:37:17;;;;;;;0.90;0.50;;;36.00;22.30;;;34.95;100.00;-21619.22;5078299;28;20469;-87
2021/06/04 10:39:50;;;;;;;1.00;0.70;;;35.70;22.90;;;34.92;100.00;-21618.41;5077642;28;20231;-87